Saturday, December 15, 2018, 10:37 PM EST
Back to Local

KACK, Nantucket Memorial Airport

Location: Nantucket, MA, United States Lat: 41.25
Local Time: 10:37 PM EST ( 3:37 GMT) Lon: -70.067
Time Zone: US/Eastern Elev: 49 ft

Show me the last for .
Show Decoded

2018-12-15 21:53 METAR KACK 160253Z AUTO 04013KT 10SM CLR 07/03 A3018 RMK AO2 SLP219 T00670028
                 51018 =
2018-12-15 20:53 METAR KACK 160153Z AUTO 04017G24KT 10SM CLR 07/03 A3017 RMK AO2 SLP215 T00720033
                 =
2018-12-15 19:53 METAR KACK 160053Z 04017G24KT 10SM CLR 07/05 A3016 RMK AO2 SLP214 T00720050 =
2018-12-15 18:53 METAR KACK 152353Z 04018G27KT 10SM CLR 07/05 A3013 RMK AO2 PK WND 03027/2344
                 SLP201 T00720050 10106 20072 50001 =
2018-12-15 17:53 METAR KACK 152253Z 03018KT 10SM CLR 08/06 A3013 RMK AO2 SLP203 T00830056 =
2018-12-15 16:53 METAR KACK 152153Z AUTO 03015KT 10SM BKN033 09/08 A3012 RMK AO2 SLP199 T00890078
                 =
2018-12-15 15:53 METAR KACK 152053Z AUTO 02011KT 10SM BKN033 09/08 A3012 RMK AO2 SLP200 T00940083
                 55004 =
2018-12-15 14:53 METAR KACK 151953Z 04005KT 10SM FEW039 SCT075 10/09 A3011 RMK AO2 SLP195
                 T01000089 =
2018-12-15 13:53 METAR KACK 151853Z 03003KT 10SM SCT005 BKN039 OVC080 11/09 A3012 RMK AO2 SLP199
                 T01060094 =
2018-12-15 12:57 METAR KACK 151757Z 36004KT 10SM R24/1600VP6000FT FEW005 BKN035 OVC043 10/08
                 A3013 RMK AO2 T01000083 =
2018-12-15 12:53 METAR KACK 151753Z 02004KT 10SM R24/1600VP6000FT BKN029 OVC038 09/08 A3013 RMK
                 AO2 SLP204 T00940083 10100 20072 56024 =
2018-12-15 11:53 METAR KACK 151653Z 36008KT 10SM OVC043 09/08 A3015 RMK AO2 SLP209 T00890083 =
2018-12-15 11:29 METAR KACK 151629Z 36007KT 1 1/2SM R24/6000FT BR VV002 09/09 A3017 RMK AO2
                 T00890089 =
2018-12-15 11:04 METAR KACK 151604Z 35006KT 2 1/2SM R24/4500VP6000FT BR VV002 09/09 A3018 RMK AO2
                 VIS 1V5 T00940089 =
2018-12-15 10:59 METAR KACK 151559Z 35005KT 1SM R24/3500VP6000FT BR FEW002 SCT015 OVC048 09/09
                 A3018 RMK AO2 T00940089 =
2018-12-15 10:53 METAR KACK 151553Z 34004KT 3/4SM R24/3000V5500FT BR VV002 09/09 A3018 RMK AO2
                 SLP221 T00890089 =
2018-12-15 10:49 METAR KACK 151549Z 34005KT 1 1/2SM R24/3000VP6000FT BR OVC004 09/08 A3019 RMK
                 AO2 =
2018-12-15 10:43 METAR KACK 151543Z 35005KT 6SM BR OVC004 09/08 A3019 RMK AO2 T00890083 =
2018-12-15 10:14 METAR KACK 151514Z 29004KT 10SM OVC047 10/09 A3020 RMK AO2 T01000094 =
2018-12-15 09:53 METAR KACK 151453Z 26006KT 4SM BR OVC040 10/09 A3020 RMK AO2 SLP228 T01000094
                 50002 =
2018-12-15 09:18 METAR KACK 151418Z 00000KT 4SM BR OVC040 09/09 A3021 RMK AO2 T00890089 =
2018-12-15 08:53 METAR KACK 151353Z 21003KT 3/4SM R24/4500FT BR VV002 09/08 A3021 RMK AO2 SLP230
                 T00890083 =
2018-12-15 07:53 METAR KACK 151253Z 18005KT 1/2SM R24/2400V2600FT FG VV002 08/07 A3020 RMK AO2
                 SLP225 T00780072 =
2018-12-15 07:22 METAR KACK 151222Z 18005KT 1/2SM R24/1600V2000FT FG VV002 07/07 A3020 RMK AO2
                 T00720072 =
2018-12-15 06:58 METAR KACK 151158Z 21006KT 1/2SM R24/2000V2400FT FG VV003 08/08 A3021 RMK AO2
                 T00780078 =
2018-12-15 06:53 METAR KACK 151153Z 22005KT 1/4SM R24/1400V2200FT FG VV003 08/08 A3021 RMK AO2
                 SLP229 60001 70001 T00780078 10078 20067 55004 =
2018-12-15 05:53 METAR KACK 151053Z 20005KT 1/4SM R24/2000V2200FT FG VV002 07/07 A3019 RMK AO2
                 RAE01B34E42 SLP224 P0000 T00720072 =
2018-12-15 05:41 METAR KACK 151041Z AUTO 23004KT 1/2SM R24/2600V3000FT -RA FG VV002 07/07 A3020
                 RMK AO2 RAE01B34 P0000 T00720072 =
2018-12-15 05:31 METAR KACK 151031Z AUTO 20005KT 1/2SM R24/3000FT FG VV009 07/07 A3020 RMK AO2
                 RAE01 P0000 T00720067 =
2018-12-15 05:22 METAR KACK 151022Z AUTO 19006KT 1/2SM R24/3000FT FG OVC023 07/07 A3020 RMK AO2
                 RAE01 P0000 T00720067 =
2018-12-15 05:01 METAR KACK 151001Z AUTO 20006KT 1/2SM R24/3500V4000FT FG BKN047 OVC060 07/07
                 A3019 RMK AO2 RAE01 P0000 T00720072 =
2018-12-15 04:53 METAR KACK 150953Z AUTO 21006KT 1/2SM R24/2000V3500FT -RA FG BKN025 OVC060 07/07
                 A3020 RMK AO2 RAE23B37 SLP225 P0001 T00720072 =
2018-12-15 04:49 METAR KACK 150949Z AUTO 20006KT 1/4SM R24/1800V2600FT -RA FG BKN017 OVC060 07/07
                 A3020 RMK AO2 RAE23B37 P0001 =
2018-12-15 04:43 METAR KACK 150943Z AUTO 21005KT 1/4SM R24/1600V2000FT -RA FG BKN011 OVC060 07/07
                 A3020 RMK AO2 RAE23B37 P0000 T00720067 =
2018-12-15 04:31 METAR KACK 150931Z AUTO 20006KT 1/4SM R24/1600V2400FT FG VV008 07/07 A3020 RMK
                 AO2 RAE23 P0000 T00720072 =
2018-12-15 04:07 METAR KACK 150907Z AUTO 21006KT 1/4SM R24/1600V2000FT -RA FG VV014 07/07 A3021
                 RMK AO2 P0000 T00720072 =
2018-12-15 04:02 METAR KACK 150902Z AUTO 23006KT 1/4SM R24/1600V2400FT -RA FG BKN015 OVC070 07/07
                 A3022 RMK AO2 P0000 T00720072 =
2018-12-15 03:53 METAR KACK 150853Z AUTO 23006KT 1/2SM R24/2400V2600FT -RA FG BKN013 OVC070 07/07
                 A3022 RMK AO2 RAB38 SLP234 P0000 60000 T00720067 58005 =
2018-12-15 03:47 METAR KACK 150847Z AUTO 23006KT 1/2SM R24/2200V2400FT -RA FG BKN016 OVC070 07/07
                 A3022 RMK AO2 RAB38 P0000 =
2018-12-15 03:43 METAR KACK 150843Z AUTO 23006KT 1/4SM R24/2200V2400FT -RA FG BKN011 OVC070 07/07
                 A3022 RMK AO2 RAB38 P0000 T00720067 =
2018-12-15 03:39 METAR KACK 150839Z AUTO 22007KT 1/4SM R24/2200FT -RA FG BKN002 OVC070 07/07
                 A3022 RMK AO2 RAB38 P0000 T00720067 =
2018-12-15 02:53 METAR KACK 150753Z AUTO 23006KT 1/2SM R24/2600V2800FT FG VV002 08/07 A3023 RMK
                 AO2 SLP237 T00780072 =
2018-12-15 02:31 METAR KACK 150731Z AUTO 23004KT 1/2SM R24/3000V3500FT FG VV002 07/07 A3023 RMK
                 AO2 T00720072 =
2018-12-15 02:05 METAR KACK 150705Z AUTO 23005KT 1 1/4SM R24/5500VP6000FT BR BKN002 OVC075 08/07
                 A3024 RMK AO2 T00780072 =
2018-12-15 01:53 METAR KACK 150653Z AUTO 23004KT 2 1/2SM BR BKN002 OVC075 07/07 A3024 RMK AO2
                 SLP239 T00720072 =
2018-12-15 01:50 METAR KACK 150650Z AUTO 24004KT 2 1/2SM BR BKN004 OVC075 07/07 A3024 RMK AO2 =
2018-12-15 01:29 METAR KACK 150629Z AUTO 22005KT 3SM BR OVC004 07/07 A3025 RMK AO2 T00720067 =
2018-12-15 01:12 METAR KACK 150612Z AUTO 22004KT 3SM BR BKN005 OVC100 07/07 A3025 RMK AO2
                 T00720067 =
2018-12-15 00:53 METAR KACK 150553Z AUTO 23005KT 4SM BR FEW003 OVC100 07/07 A3025 RMK AO2 SLP244
                 T00670067 10072 20039 56016 =
2018-12-15 00:29 METAR KACK 150529Z AUTO 23006KT 10SM FEW003 SCT060 OVC100 07/07 A3025 RMK AO2
                 T00720072 =
2018-12-14 23:53 METAR KACK 150453Z AUTO 23005KT 7SM OVC090 06/06 A3027 RMK AO2 SLP249 T00610061
                 400781033 =
2018-12-14 22:53 METAR KACK 150353Z AUTO 18006KT 8SM OVC110 06/06 A3027 RMK AO2 SLP250 T00610061
                 =

Support USWX by starting your Amazon purchase here.